DAUO/ELU METAR and TAF weather

Enter ICAO airport designator
Station Type Date Time Source
DAUO METAR 2020/07/02 19:00 UTC NOAA

DAUO 021900Z 25003KT CAVOK 43/12 Q1009


Station Type Date Time Source
DAUO Decoded METAR 2020/07/02 19:00 UTC NOAA

El Oued, Algeria (DAUO) 33-30N 006-07E 63M
Jul 02, 2020 - 03:00 PM EDT / 2020.07.02 1900 UTC
Wind: from the WSW (250 degrees) at 3 MPH (3 KT):0
Visibility: greater than 7 mile(s):0
Temperature: 109 F (43 C)
Heat index: 107.4 F (41.9 C):1
Dew Point: 53 F (12 C)
Relative Humidity: 16%
Pressure (altimeter): 29.80 in. Hg (1009 hPa)
ob: DAUO 021900Z 25003KT CAVOK 43/12 Q1009
cycle: 19

Station Type Date Time Source
DAUO TAF 2017/11/09 18:03 UTC NOAA

TAF DAUO 091700Z 0918/1009 28010KT 9999 SCT033 SCT100 PROB30
TEMPO 0918/0924 28015G25KT 5000 -TSRA FEW036CB

Example: see airport list